Weather History for KDZB - April, 2013

Change the Weather History Date:

Saturday, April 6, 2013

  Actual Average (KBMQ) Record (KBMQ)
Temperature  
Mean Temperature 64 °F -  
Max Temperature 78 °F 72 °F 87 °F (2006)
Min Temperature 50 °F 51 °F 41 °F (2009)
Degree Days  
Heating Degree Days 1    
Growing Degree Days 14 (Base 50)    
Moisture  
Dew Point 50 °F    
Average Humidity 61    
Maximum Humidity 94    
Minimum Humidity 41    
Precipitation  
Precipitation 0.00 in - - ()
Sea Level Pressure  
Sea Level Pressure 29.94 in    
Wind  
Wind Speed 8 mph (South)    
Max Wind Speed 14 mph    
Max Gust Speed 30 mph    
Visibility 10 miles    
Events      
Averages and records for this station are not official NWS values.
T = Trace of Precipitation, MM = Missing Value Source: NWS Daily Summary

Daily Weather History Graph

Daily Weather History Graph

Search for Another Location

Airport or City:

Trip Planner

Search our weather history database for the weather conditions in past years. The results will help you decide how hot, cold, wet, or windy it might be!

Date:

Astronomy

Apr. 06, 2013 Rise Set
Actual Time 6:16 AM MDT 6:55 PM MDT
Civil Twilight 5:51 AM MDT 7:20 PM MDT
Nautical Twilight 5:23 AM MDT 7:48 PM MDT
Astronomical Twilight 4:54 AM MDT 8:18 PM MDT
Moon 3:45 AM MDT (4/6) 3:38 PM MDT (4/6)
Length of Visible Light 13h 28m
Length of Day
12h 39m
Waning Crescent, 14% of the Moon is Illuminated
Apr 6
Waning Crescent
Apr 10
New
Apr 18
First Quarter
Apr 25
Full
May 2
Last Quarter

Hourly Weather History & Observations

Time (MDT) Temp. Dew Point Humidity Pressure Visibility Wind Dir Wind Speed Gust Speed Precip Events Conditions
12:15 AM 57.2 °F 44.6 °F 63% 30.04 in 10.0 mi SSE 6.9 mph - N/A   Clear
12:35 AM 57.2 °F 44.6 °F 63% 30.03 in 10.0 mi South 10.4 mph 17.3 mph N/A   Clear
12:55 AM 55.4 °F 46.4 °F 72% 30.02 in 10.0 mi SSE 8.1 mph - N/A   Clear
1:15 AM 55.4 °F 46.4 °F 72% 30.03 in 10.0 mi SSE 5.8 mph - N/A   Clear
1:35 AM 53.6 °F 44.6 °F 72% 30.01 in 10.0 mi SSE 5.8 mph - N/A   Clear
1:55 AM 53.6 °F 44.6 °F 72% 30.02 in 10.0 mi SSE 3.5 mph - N/A   Clear
2:15 AM 51.8 °F 44.6 °F 76% 30.01 in 10.0 mi South 4.6 mph - N/A   Clear
2:35 AM 51.8 °F 44.6 °F 76% 29.99 in 10.0 mi South 8.1 mph - N/A   Clear
2:55 AM 53.6 °F 44.6 °F 72% 29.98 in 10.0 mi SSE 5.8 mph - N/A   Clear
3:15 AM 51.8 °F 44.6 °F 76% 29.98 in 10.0 mi SSE 6.9 mph - N/A   Clear
3:35 AM 51.8 °F 42.8 °F 71% 29.98 in 10.0 mi South 5.8 mph - N/A   Clear
3:55 AM 51.8 °F 42.8 °F 71% 29.98 in 10.0 mi South 8.1 mph - N/A   Clear
4:15 AM 51.8 °F 42.8 °F 71% 29.98 in 10.0 mi South 6.9 mph - N/A   Clear
4:35 AM 51.8 °F 42.8 °F 71% 29.98 in 10.0 mi South 5.8 mph - N/A   Clear
4:55 AM 51.8 °F 44.6 °F 76% 29.98 in 10.0 mi South 3.5 mph - N/A   Clear
5:15 AM 51.8 °F 44.6 °F 76% 29.97 in 10.0 mi South 4.6 mph - N/A   Clear
5:35 AM 51.8 °F 44.6 °F 76% 29.98 in 10.0 mi South 6.9 mph - N/A   Clear
5:55 AM 50.0 °F 44.6 °F 82% 29.98 in 10.0 mi South 4.6 mph - N/A   Clear
6:15 AM 50.0 °F 44.6 °F 82% 29.98 in 10.0 mi Calm Calm - N/A   Clear
6:35 AM 50.0 °F 46.4 °F 87% 30.00 in 10.0 mi South 3.5 mph - N/A   Scattered Clouds
6:55 AM 50.0 °F 46.4 °F 87% 29.99 in 10.0 mi South 4.6 mph - N/A   Clear
7:15 AM 51.8 °F 50.0 °F 94% 29.99 in 10.0 mi SSE 4.6 mph - N/A   Clear
7:35 AM 53.6 °F 50.0 °F 88% 30.00 in 10.0 mi South 6.9 mph - N/A   Scattered Clouds
7:55 AM 55.4 °F 48.2 °F 77% 30.00 in 10.0 mi South 6.9 mph - N/A   Mostly Cloudy
8:15 AM 57.2 °F 50.0 °F 77% 30.00 in 10.0 mi South 11.5 mph 17.3 mph N/A   Mostly Cloudy
8:35 AM 59.0 °F 50.0 °F 72% 30.00 in 10.0 mi South 9.2 mph 18.4 mph N/A   Scattered Clouds
8:55 AM 60.8 °F 50.0 °F 68% 30.00 in 10.0 mi South 12.7 mph 23.0 mph N/A   Scattered Clouds
9:15 AM 60.8 °F 50.0 °F 68% 30.00 in 10.0 mi South 12.7 mph 20.7 mph N/A   Clear
9:35 AM 62.6 °F 50.0 °F 63% 30.00 in 10.0 mi South 9.2 mph 19.6 mph N/A   Scattered Clouds
9:55 AM 64.4 °F 50.0 °F 59% 30.00 in 10.0 mi South 12.7 mph 19.6 mph N/A   Clear
10:15 AM 66.2 °F 50.0 °F 56% 29.99 in 10.0 mi South 13.8 mph 20.7 mph N/A   Clear
10:35 AM 68.0 °F 50.0 °F 52% 29.99 in 10.0 mi South 11.5 mph 23.0 mph N/A   Clear
10:55 AM 68.0 °F 50.0 °F 52% 29.98 in 10.0 mi South 12.7 mph 20.7 mph N/A   Clear
11:15 AM 69.8 °F 51.8 °F 53% 29.97 in 10.0 mi SSW 5.8 mph 26.5 mph N/A   Clear
11:35 AM 69.8 °F 50.0 °F 49% 29.97 in 10.0 mi South 8.1 mph 21.9 mph N/A   Clear
11:55 AM 73.4 °F 50.0 °F 44% 29.97 in 10.0 mi SSW 9.2 mph 18.4 mph N/A   Clear
12:15 PM 71.6 °F 50.0 °F 46% 29.96 in 10.0 mi SSW 10.4 mph 20.7 mph N/A   Clear
12:35 PM 73.4 °F 50.0 °F 44% 29.95 in 10.0 mi South 10.4 mph 24.2 mph N/A   Clear
12:55 PM 75.2 °F 51.8 °F 44% 29.94 in 10.0 mi South 11.5 mph 19.6 mph N/A   Clear
1:15 PM 75.2 °F 51.8 °F 44% 29.92 in 10.0 mi South 11.5 mph 29.9 mph N/A   Clear
1:35 PM 77.0 °F 51.8 °F 41% 29.92 in 10.0 mi South 8.1 mph 17.3 mph N/A   Clear
1:55 PM 77.0 °F 51.8 °F 41% 29.90 in 10.0 mi South 10.4 mph 21.9 mph N/A   Clear
2:15 PM 77.0 °F 53.6 °F 44% 29.90 in 10.0 mi South 11.5 mph 18.4 mph N/A   Clear
2:35 PM 77.0 °F 53.6 °F 44% 29.89 in 10.0 mi South 8.1 mph 21.9 mph N/A   Clear
2:55 PM 78.8 °F 53.6 °F 42% 29.88 in 10.0 mi South 13.8 mph 19.6 mph N/A   Clear
3:15 PM 78.8 °F 53.6 °F 42% 29.87 in 10.0 mi South 12.7 mph 16.1 mph N/A   Clear
3:35 PM 78.8 °F 53.6 °F 42% 29.86 in 10.0 mi South 6.9 mph 21.9 mph N/A   Clear
3:55 PM 78.8 °F 53.6 °F 42% 29.86 in 10.0 mi South 12.7 mph 19.6 mph N/A   Clear
4:15 PM 78.8 °F 53.6 °F 42% 29.86 in 10.0 mi South 9.2 mph 19.6 mph N/A   Clear
4:35 PM 78.8 °F 53.6 °F 42% 29.85 in 10.0 mi South 8.1 mph 18.4 mph N/A   Clear
4:55 PM 78.8 °F 53.6 °F 42% 29.85 in 10.0 mi South 12.7 mph 19.6 mph N/A   Clear
5:15 PM 77.0 °F 53.6 °F 44% 29.85 in 10.0 mi South 10.4 mph 17.3 mph N/A   Clear
5:35 PM 77.0 °F 53.6 °F 44% 29.84 in 10.0 mi South 11.5 mph 17.3 mph N/A   Clear
5:55 PM 77.0 °F 53.6 °F 44% 29.85 in 10.0 mi South 10.4 mph 16.1 mph N/A   Clear
6:15 PM 77.0 °F 51.8 °F 41% 29.85 in 10.0 mi South 9.2 mph 17.3 mph N/A   Clear
6:35 PM 73.4 °F 53.6 °F 50% 29.85 in 10.0 mi South 9.2 mph - N/A   Clear
7:15 PM 71.6 °F 53.6 °F 53% 29.85 in 10.0 mi South 3.5 mph - N/A   Clear
7:35 PM 69.8 °F 53.6 °F 56% 29.85 in 10.0 mi Calm Calm - N/A   Clear
7:55 PM 68.0 °F 53.6 °F 60% 29.86 in 10.0 mi South 3.5 mph - N/A   Clear
8:15 PM 68.0 °F 53.6 °F 60% 29.86 in 10.0 mi South 3.5 mph - N/A   Clear
8:55 PM 68.0 °F 53.6 °F 60% 29.87 in 10.0 mi SSE 9.2 mph - N/A   Clear
9:15 PM 68.0 °F 53.6 °F 60% 29.87 in 10.0 mi SSE 9.2 mph - N/A   Clear
9:35 PM 68.0 °F 53.6 °F 60% 29.86 in 10.0 mi SSE 10.4 mph 16.1 mph N/A   Clear
10:15 PM 66.2 °F 53.6 °F 64% 29.87 in 10.0 mi SSE 9.2 mph 19.6 mph N/A   Clear
10:35 PM 64.4 °F 53.6 °F 68% 29.87 in 10.0 mi SSE 12.7 mph 19.6 mph N/A   Clear
10:55 PM 64.4 °F 53.6 °F 68% 29.88 in 10.0 mi SSE 5.8 mph - N/A   Clear
11:15 PM 62.6 °F 53.6 °F 72% 29.88 in 10.0 mi South 3.5 mph - N/A   Clear
11:55 PM 62.6 °F 53.6 °F 72% 29.88 in 10.0 mi SSE 6.9 mph - N/A   Clear